createdAt,value
2023-01-18T00:08:44.756Z,6.10
2023-01-18T00:18:56.571Z,5.00
2023-01-18T00:29:01.081Z,4.80
2023-01-18T00:39:05.387Z,2.30
2023-01-18T00:49:09.343Z,3.10
2023-01-18T00:59:15.623Z,3.60
2023-01-18T01:09:31.190Z,3.20
2023-01-18T01:19:53.593Z,3.30
2023-01-18T01:30:14.094Z,2.10
2023-01-18T01:40:18.350Z,2.00
2023-01-18T01:50:33.562Z,2.60
2023-01-18T02:00:40.342Z,2.10
2023-01-18T02:11:03.191Z,2.40
2023-01-18T02:21:44.630Z,2.60
2023-01-18T02:32:02.169Z,3.00
2023-01-18T02:43:01.296Z,2.40
2023-01-18T02:53:05.361Z,2.40
2023-01-18T03:03:20.718Z,2.10
2023-01-18T03:13:50.839Z,1.60
2023-01-18T03:23:56.012Z,1.90
2023-01-18T03:34:22.808Z,2.60
2023-01-18T03:44:51.551Z,2.10
2023-01-18T03:55:58.909Z,3.60
2023-01-18T04:06:38.441Z,3.90
2023-01-18T04:16:56.069Z,5.80
2023-01-18T04:27:04.528Z,10.30
2023-01-18T04:37:12.118Z,5.50
2023-01-18T04:47:36.775Z,4.50
2023-01-18T04:58:12.916Z,5.30
2023-01-18T05:08:23.493Z,5.30
2023-01-18T05:18:53.984Z,6.30
2023-01-18T05:29:01.484Z,8.10
2023-01-18T05:39:18.461Z,8.20
2023-01-18T05:49:28.575Z,11.00
2023-01-18T06:10:15.972Z,11.00
2023-01-18T06:20:42.213Z,11.00
2023-01-18T06:31:08.973Z,12.20
2023-01-18T06:41:13.419Z,10.80
2023-01-18T06:51:20.713Z,13.20
2023-01-18T07:01:55.099Z,13.50
2023-01-18T07:12:27.820Z,18.80
2023-01-18T07:22:34.841Z,22.80
2023-01-18T07:33:07.301Z,21.70
2023-01-18T07:43:45.088Z,25.40
2023-01-18T07:54:17.254Z,25.30
2023-01-18T08:04:50.235Z,28.70
2023-01-18T08:15:18.063Z,26.70
2023-01-18T08:25:51.659Z,25.40
2023-01-18T08:36:32.023Z,25.70
2023-01-18T08:46:49.679Z,27.30
2023-01-18T08:56:59.534Z,34.90
2023-01-18T09:07:09.334Z,34.60
2023-01-18T09:17:37.164Z,44.70
2023-01-18T09:27:46.912Z,44.90
2023-01-18T09:37:51.325Z,46.10
2023-01-18T09:48:05.272Z,58.00
2023-01-18T09:58:47.642Z,46.60
2023-01-18T10:09:07.479Z,35.40
2023-01-18T10:19:34.040Z,35.80
2023-01-18T10:29:54.946Z,39.10
2023-01-18T10:40:07.744Z,52.60
2023-01-18T10:50:18.254Z,58.00
2023-01-18T11:00:29.145Z,43.10
2023-01-18T11:10:36.374Z,40.70
2023-01-18T11:21:27.889Z,44.30
2023-01-18T11:31:50.703Z,33.00
2023-01-18T11:42:22.016Z,34.50
2023-01-18T11:52:49.580Z,40.70
2023-01-18T12:03:31.038Z,38.20
2023-01-18T12:14:13.025Z,37.80
2023-01-18T12:24:54.326Z,28.50
2023-01-18T12:35:24.205Z,23.90
2023-01-18T12:45:41.450Z,17.70
2023-01-18T12:55:52.344Z,22.00
2023-01-18T13:06:01.669Z,13.50
2023-01-18T13:16:39.802Z,12.70
2023-01-18T13:26:43.999Z,11.70
2023-01-18T13:36:48.069Z,14.00
2023-01-18T13:46:52.642Z,8.70
2023-01-18T13:57:32.720Z,9.30
2023-01-18T14:08:12.668Z,6.20
2023-01-18T14:18:53.721Z,6.00
2023-01-18T14:29:17.355Z,4.80
2023-01-18T14:39:33.076Z,5.50
2023-01-18T14:50:03.672Z,4.40
2023-01-18T15:00:18.791Z,4.20
2023-01-18T15:10:24.643Z,5.70
2023-01-18T15:20:29.188Z,5.20
2023-01-18T15:30:34.136Z,3.90
2023-01-18T15:41:04.862Z,4.50
2023-01-18T15:51:12.655Z,5.20
2023-01-18T16:11:47.952Z,5.60
2023-01-18T16:21:59.330Z,4.20
2023-01-18T16:32:30.755Z,6.50
2023-01-18T16:43:13.889Z,8.30
2023-01-18T16:53:27.095Z,7.10
2023-01-18T17:03:36.873Z,7.90
2023-01-18T17:13:42.582Z,7.40
2023-01-18T17:23:59.862Z,7.00
2023-01-18T17:34:30.056Z,10.80
2023-01-18T17:44:58.539Z,9.80
2023-01-18T18:06:03.096Z,8.90
2023-01-18T18:16:20.214Z,9.20
2023-01-18T18:26:47.290Z,8.70
2023-01-18T18:46:58.470Z,8.90
2023-01-18T18:57:04.400Z,10.80
2023-01-18T19:17:54.030Z,30.50
2023-01-18T19:28:55.994Z,17.00
2023-01-18T19:39:26.259Z,27.40
2023-01-18T19:49:42.049Z,41.10
2023-01-18T19:59:47.513Z,59.40
2023-01-18T20:10:15.031Z,42.60
2023-01-18T20:20:52.877Z,48.10
2023-01-18T20:31:00.134Z,94.30
2023-01-18T20:41:08.596Z,72.40
2023-01-18T20:51:14.915Z,80.80
2023-01-18T21:01:21.663Z,61.70
2023-01-18T21:12:07.441Z,59.80
2023-01-18T21:22:16.056Z,48.50
2023-01-18T21:33:13.651Z,45.00
2023-01-18T21:43:46.480Z,48.40
2023-01-18T21:54:36.779Z,50.20
2023-01-18T22:05:21.134Z,53.40
2023-01-18T22:16:30.437Z,52.90
2023-01-18T22:27:08.873Z,39.00
2023-01-18T22:38:38.313Z,52.10
2023-01-18T22:49:45.475Z,48.40
2023-01-18T23:00:42.129Z,67.00
2023-01-18T23:11:19.467Z,66.80
2023-01-18T23:22:24.629Z,66.60
2023-01-18T23:32:52.961Z,41.90
2023-01-18T23:43:48.605Z,54.00
2023-01-18T23:54:45.844Z,55.90
